createdAt,value
2018-07-10T00:01:13.764Z,16.62
2018-07-10T00:03:41.399Z,16.64
2018-07-10T00:06:09.068Z,16.65
2018-07-10T00:08:38.433Z,16.65
2018-07-10T00:11:06.088Z,16.62
2018-07-10T00:13:34.301Z,16.61
2018-07-10T00:16:03.824Z,16.63
2018-07-10T00:18:33.783Z,16.60
2018-07-10T00:21:01.440Z,16.59
2018-07-10T00:23:29.095Z,16.58
2018-07-10T00:25:57.144Z,16.60
2018-07-10T00:28:24.803Z,16.62
2018-07-10T00:30:52.972Z,16.59
2018-07-10T00:33:20.947Z,16.58
2018-07-10T00:35:48.608Z,16.56
2018-07-10T00:38:16.851Z,16.57
2018-07-10T00:40:44.515Z,16.55
2018-07-10T00:43:13.258Z,16.53
2018-07-10T00:45:41.058Z,16.48
2018-07-10T00:48:19.880Z,16.45
2018-07-10T00:50:52.455Z,16.48
2018-07-10T00:53:20.464Z,16.50
2018-07-10T00:55:48.095Z,16.48
2018-07-10T00:58:15.742Z,16.49
2018-07-10T01:00:43.395Z,16.48
2018-07-10T01:03:11.312Z,16.46
2018-07-10T01:05:38.939Z,16.43
2018-07-10T01:08:06.568Z,16.43
2018-07-10T01:10:35.644Z,16.49
2018-07-10T01:13:04.556Z,16.52
2018-07-10T01:15:32.187Z,16.48
2018-07-10T01:17:59.847Z,16.43
2018-07-10T01:20:28.419Z,16.41
2018-07-10T01:22:59.053Z,16.43
2018-07-10T01:25:26.720Z,16.40
2018-07-10T01:27:54.563Z,16.33
2018-07-10T01:30:22.558Z,16.28
2018-07-10T01:32:50.208Z,16.26
2018-07-10T01:35:17.880Z,16.22
2018-07-10T01:37:46.075Z,16.17
2018-07-10T01:40:14.025Z,16.15
2018-07-10T01:42:41.650Z,16.13
2018-07-10T01:45:09.315Z,16.12
2018-07-10T01:47:37.411Z,16.13
2018-07-10T01:50:05.046Z,16.14
2018-07-10T01:52:32.708Z,16.16
2018-07-10T01:55:00.340Z,16.13
2018-07-10T01:57:28.613Z,16.15
2018-07-10T01:59:56.555Z,16.16
2018-07-10T02:02:25.010Z,16.17
2018-07-10T02:04:52.668Z,16.17
2018-07-10T02:07:20.761Z,16.15
2018-07-10T02:09:49.032Z,16.16
2018-07-10T02:12:16.688Z,16.18
2018-07-10T02:14:44.348Z,16.17
2018-07-10T02:17:12.436Z,16.16
2018-07-10T02:19:40.134Z,16.18
2018-07-10T02:22:20.047Z,16.22
2018-07-10T02:24:58.494Z,16.20
2018-07-10T02:27:36.988Z,16.14
2018-07-10T02:30:04.624Z,16.02
2018-07-10T02:32:32.632Z,15.93
2018-07-10T02:35:00.267Z,15.83
2018-07-10T02:37:28.010Z,15.73
2018-07-10T02:39:56.036Z,15.64
2018-07-10T02:42:23.884Z,15.58
2018-07-10T02:44:51.536Z,15.50
2018-07-10T02:47:19.197Z,15.41
2018-07-10T02:49:47.287Z,15.36
2018-07-10T02:52:14.924Z,15.32
2018-07-10T02:54:42.598Z,15.32
2018-07-10T02:57:10.660Z,15.32
2018-07-10T02:59:39.018Z,15.32
2018-07-10T03:02:07.373Z,15.31
2018-07-10T03:04:35.324Z,15.27
2018-07-10T03:07:03.048Z,15.23
2018-07-10T03:09:30.710Z,15.24
2018-07-10T03:11:58.609Z,15.23
2018-07-10T03:14:26.760Z,15.20
2018-07-10T03:16:54.426Z,15.20
2018-07-10T03:19:22.180Z,15.20
2018-07-10T03:21:50.192Z,15.17
2018-07-10T03:24:17.836Z,15.16
2018-07-10T03:26:45.470Z,15.15
2018-07-10T03:29:13.656Z,15.13
2018-07-10T03:31:41.573Z,15.13
2018-07-10T03:34:09.204Z,15.12
2018-07-10T03:36:36.848Z,15.11
2018-07-10T03:39:06.009Z,15.11
2018-07-10T03:41:33.663Z,15.12
2018-07-10T03:44:01.307Z,15.13
2018-07-10T03:46:28.947Z,15.11
2018-07-10T03:48:57.519Z,15.11
2018-07-10T03:51:25.176Z,15.09
2018-07-10T03:53:52.840Z,15.09
2018-07-10T03:56:21.119Z,15.12
2018-07-10T03:58:48.767Z,15.16
2018-07-10T04:01:16.624Z,15.24
2018-07-10T04:03:44.277Z,15.25
2018-07-10T04:06:12.006Z,15.23
2018-07-10T04:08:40.240Z,15.27
2018-07-10T04:11:07.883Z,15.34
2018-07-10T04:13:36.654Z,15.33
2018-07-10T04:16:04.500Z,15.30
2018-07-10T04:18:32.425Z,15.29
2018-07-10T04:21:00.638Z,15.28
2018-07-10T04:23:28.312Z,15.27
2018-07-10T04:25:56.556Z,15.26
2018-07-10T04:28:24.555Z,15.29
2018-07-10T04:30:52.364Z,15.35
2018-07-10T04:33:20.019Z,15.36
2018-07-10T04:35:47.732Z,15.42
2018-07-10T04:38:15.700Z,15.51
2018-07-10T04:40:43.386Z,15.58
2018-07-10T04:43:11.028Z,15.61
2018-07-10T04:45:40.527Z,15.63
2018-07-10T04:48:08.209Z,15.65
2018-07-10T04:50:38.064Z,15.68
2018-07-10T04:53:07.449Z,15.70
2018-07-10T04:55:35.602Z,15.77
2018-07-10T04:58:03.829Z,15.87
2018-07-10T05:00:31.872Z,15.99
2018-07-10T05:03:00.164Z,16.07
2018-07-10T05:05:27.832Z,16.05
2018-07-10T05:07:55.744Z,16.06
2018-07-10T05:10:24.793Z,16.08
2018-07-10T05:12:52.424Z,16.08
2018-07-10T05:15:20.375Z,16.09
2018-07-10T05:17:48.089Z,16.10
2018-07-10T05:20:15.737Z,16.08
2018-07-10T05:22:43.685Z,16.07
2018-07-10T05:25:11.349Z,16.03
2018-07-10T05:27:38.991Z,15.99
2018-07-10T05:30:06.921Z,15.97
2018-07-10T05:32:34.599Z,15.93
2018-07-10T05:35:02.261Z,15.90
2018-07-10T05:37:30.556Z,15.91
2018-07-10T05:39:58.203Z,15.92
2018-07-10T05:42:25.833Z,15.94
2018-07-10T05:44:54.677Z,15.92
2018-07-10T05:47:22.732Z,15.92
2018-07-10T05:49:50.406Z,15.90
2018-07-10T05:52:19.354Z,15.94
2018-07-10T05:54:47.915Z,16.04
2018-07-10T05:57:16.061Z,16.13
2018-07-10T05:59:43.979Z,16.20
2018-07-10T06:02:11.616Z,16.30
2018-07-10T06:04:40.254Z,16.36
2018-07-10T06:07:07.878Z,16.39
2018-07-10T06:09:35.514Z,16.40
2018-07-10T06:12:03.750Z,16.40
2018-07-10T06:14:31.384Z,16.37
2018-07-10T06:16:59.033Z,16.40
2018-07-10T06:19:28.004Z,16.48
2018-07-10T06:21:55.645Z,16.60
2018-07-10T06:24:23.293Z,16.69
2018-07-10T06:26:51.265Z,16.75
2018-07-10T06:29:18.888Z,16.78
2018-07-10T06:31:46.508Z,16.80
2018-07-10T06:34:14.433Z,16.86
2018-07-10T06:36:43.564Z,16.93
2018-07-10T06:39:15.257Z,16.96
2018-07-10T06:41:43.170Z,16.91
2018-07-10T06:44:10.869Z,16.83
2018-07-10T06:46:39.964Z,16.77
2018-07-10T06:49:07.920Z,16.70
2018-07-10T06:51:35.560Z,16.67
2018-07-10T06:54:03.204Z,16.74
2018-07-10T06:56:31.690Z,16.82
2018-07-10T06:59:00.077Z,16.95
2018-07-10T07:01:27.736Z,17.07
2018-07-10T07:03:56.461Z,17.16
2018-07-10T07:06:24.644Z,17.20
2018-07-10T07:08:54.203Z,17.23
2018-07-10T07:11:22.959Z,17.26
2018-07-10T07:13:50.585Z,17.27
2018-07-10T07:16:18.244Z,17.29
2018-07-10T07:18:46.423Z,17.30
2018-07-10T07:21:15.707Z,17.32
2018-07-10T07:23:43.400Z,17.32
2018-07-10T07:26:12.171Z,17.32
2018-07-10T07:28:39.797Z,17.24
2018-07-10T07:31:07.543Z,17.11
2018-07-10T07:33:36.324Z,16.97
2018-07-10T07:36:04.465Z,16.86
2018-07-10T07:38:35.118Z,16.74
2018-07-10T07:41:04.762Z,16.66
2018-07-10T07:46:07.587Z,16.63
2018-07-10T07:48:35.537Z,16.65
2018-07-10T07:51:04.473Z,16.73
2018-07-10T07:53:32.368Z,16.73
2018-07-10T07:56:00.939Z,16.71
2018-07-10T07:58:29.372Z,16.68
2018-07-10T08:00:57.692Z,16.63
2018-07-10T08:03:26.383Z,16.61
2018-07-10T08:05:54.808Z,16.59
2018-07-10T08:08:27.957Z,16.61
2018-07-10T08:10:57.449Z,16.63
2018-07-10T08:13:25.400Z,16.64
2018-07-10T08:15:53.942Z,16.63
2018-07-10T08:18:21.952Z,16.55
2018-07-10T08:20:50.184Z,16.46
2018-07-10T08:23:18.440Z,16.38
2018-07-10T08:25:46.594Z,16.32
2018-07-10T08:28:17.243Z,16.32
2018-07-10T08:30:44.889Z,16.28
2018-07-10T08:33:12.795Z,16.22
2018-07-10T08:35:41.256Z,16.09
2018-07-10T08:38:08.916Z,15.97
2018-07-10T08:40:37.647Z,15.83
2018-07-10T08:43:06.415Z,15.68
2018-07-10T08:45:34.070Z,15.55
2018-07-10T08:48:03.993Z,15.45
2018-07-10T08:50:31.646Z,15.35
2018-07-10T08:52:59.278Z,15.27
2018-07-10T08:55:28.340Z,15.23
2018-07-10T08:57:56.795Z,15.22
2018-07-10T09:00:24.480Z,15.20
2018-07-10T09:02:53.422Z,15.13
2018-07-10T09:05:21.079Z,15.10
2018-07-10T09:07:49.632Z,15.08
2018-07-10T09:10:18.370Z,15.06
2018-07-10T09:12:46.684Z,15.00
2018-07-10T09:15:15.836Z,14.95
2018-07-10T09:17:44.467Z,14.96
2018-07-10T09:20:12.103Z,14.89
2018-07-10T09:22:39.811Z,14.85
2018-07-10T09:25:08.683Z,14.78
2018-07-10T09:27:39.076Z,14.67
2018-07-10T09:30:07.533Z,14.62
2018-07-10T09:32:40.435Z,14.54
2018-07-10T09:35:09.925Z,14.41
2018-07-10T09:37:42.565Z,14.30
2018-07-10T09:40:15.560Z,14.22
2018-07-10T09:42:43.277Z,14.19
2018-07-10T09:45:10.918Z,14.16
2018-07-10T09:47:38.871Z,14.14
2018-07-10T09:50:07.930Z,14.11
2018-07-10T09:52:35.663Z,14.08
2018-07-10T09:55:04.825Z,14.04
2018-07-10T09:57:34.321Z,14.01
2018-07-10T10:00:02.230Z,13.99
2018-07-10T10:02:34.688Z,14.03
2018-07-10T10:05:05.140Z,14.09
2018-07-10T10:07:32.853Z,14.10
2018-07-10T10:10:01.320Z,14.11
2018-07-10T10:12:29.006Z,14.12
2018-07-10T10:14:56.698Z,14.10
2018-07-10T10:17:25.220Z,14.10
2018-07-10T10:19:52.891Z,14.03
2018-07-10T10:22:20.704Z,13.99
2018-07-10T10:24:48.617Z,13.94
2018-07-10T10:27:16.256Z,13.96
2018-07-10T10:29:46.374Z,13.98
2018-07-10T10:32:14.268Z,14.03
2018-07-10T10:34:42.606Z,14.04
2018-07-10T10:37:10.294Z,14.08
2018-07-10T10:39:38.392Z,14.11
2018-07-10T10:42:06.049Z,14.16
2018-07-10T10:44:33.712Z,14.18
2018-07-10T10:47:02.576Z,14.20
2018-07-10T10:49:31.379Z,14.27
2018-07-10T10:51:59.719Z,14.33
2018-07-10T10:54:27.639Z,14.39
2018-07-10T10:56:59.589Z,14.39
2018-07-10T10:59:27.220Z,14.37
2018-07-10T11:01:55.393Z,14.53
2018-07-10T11:04:23.789Z,14.71
2018-07-10T11:06:52.148Z,14.79
2018-07-10T11:09:21.823Z,14.82
2018-07-10T11:11:49.531Z,14.83
2018-07-10T11:14:18.396Z,14.84
2018-07-10T11:16:47.197Z,14.82
2018-07-10T11:19:16.496Z,14.82
2018-07-10T11:21:45.307Z,14.82
2018-07-10T11:24:13.214Z,14.77
2018-07-10T11:26:41.873Z,14.83
2018-07-10T11:29:10.832Z,15.05
2018-07-10T11:31:42.850Z,15.27
2018-07-10T11:34:10.502Z,15.26
2018-07-10T11:36:38.314Z,15.23
2018-07-10T11:39:07.577Z,15.22
2018-07-10T11:41:35.237Z,15.17
2018-07-10T11:44:03.940Z,15.14
2018-07-10T11:46:32.840Z,15.19
2018-07-10T11:49:01.216Z,15.28
2018-07-10T12:30:31.970Z,14.76
2018-07-10T12:32:59.611Z,14.81
2018-07-10T12:35:30.820Z,14.97
2018-07-10T12:37:58.475Z,15.16
2018-07-10T12:40:26.140Z,15.26
2018-07-10T12:42:54.233Z,15.36
2018-07-10T12:45:24.436Z,15.37
2018-07-10T12:47:53.079Z,15.38
2018-07-10T12:50:21.524Z,15.39
2018-07-10T12:52:49.747Z,15.49
2018-07-10T12:55:17.425Z,15.60
2018-07-10T12:57:45.764Z,15.75
2018-07-10T13:00:15.716Z,15.95
2018-07-10T13:02:44.600Z,16.02
2018-07-10T13:05:13.236Z,16.00
2018-07-10T13:07:41.203Z,15.98
2018-07-10T13:10:09.505Z,15.92
2018-07-10T13:12:37.350Z,15.88
2018-07-10T13:15:06.406Z,15.91
2018-07-10T13:17:34.279Z,15.95
2018-07-10T13:20:02.353Z,15.96
2018-07-10T13:22:32.118Z,16.03
2018-07-10T13:24:59.776Z,16.15
2018-07-10T13:27:28.208Z,16.27
2018-07-10T13:29:56.465Z,16.29
2018-07-10T13:32:25.307Z,16.30
2018-07-10T13:34:53.631Z,16.42
2018-07-10T13:37:22.151Z,16.70
2018-07-10T13:39:49.836Z,17.16
2018-07-10T13:42:17.509Z,17.48
2018-07-10T13:44:45.436Z,17.83
2018-07-10T13:47:15.129Z,17.91
2018-07-10T13:49:43.498Z,17.95
2018-07-10T13:52:13.625Z,18.15
2018-07-10T13:54:43.310Z,18.22
2018-07-10T13:57:11.933Z,18.19
2018-07-10T13:59:41.045Z,18.12
2018-07-10T14:02:09.432Z,18.07
2018-07-10T14:04:39.918Z,17.97
2018-07-10T14:07:07.920Z,17.88
2018-07-10T14:09:36.243Z,17.77
2018-07-10T14:12:06.842Z,17.72
2018-07-10T14:14:36.440Z,17.64
2018-07-10T14:17:08.357Z,17.48
2018-07-10T14:19:37.472Z,17.38
2018-07-10T14:22:05.413Z,17.30
2018-07-10T14:24:33.527Z,17.20
2018-07-10T14:27:03.436Z,17.01
2018-07-10T14:29:33.182Z,16.82
2018-07-10T14:32:01.916Z,16.64
2018-07-10T14:34:34.358Z,16.52
2018-07-10T14:37:03.281Z,16.44
2018-07-10T14:39:30.940Z,16.38
2018-07-10T14:41:58.632Z,16.34
2018-07-10T14:44:26.573Z,16.29
2018-07-10T14:46:54.253Z,16.24
2018-07-10T14:49:21.953Z,16.17
2018-07-10T14:51:49.887Z,16.13
2018-07-10T14:54:17.561Z,16.16
2018-07-10T14:56:45.208Z,16.22
2018-07-10T14:59:13.490Z,16.23
2018-07-10T15:01:42.788Z,16.20
2018-07-10T15:04:12.613Z,16.17
2018-07-10T15:06:41.228Z,16.15
2018-07-10T15:09:11.091Z,16.14
2018-07-10T15:11:39.388Z,16.10
2018-07-10T15:14:09.412Z,16.04
2018-07-10T15:16:42.198Z,16.00
2018-07-10T15:19:09.919Z,15.97
2018-07-10T15:21:38.929Z,15.92
2018-07-10T15:24:08.627Z,15.90
2018-07-10T15:26:37.279Z,15.87
2018-07-10T15:29:06.528Z,15.85
2018-07-10T15:31:34.701Z,15.84
2018-07-10T15:34:03.226Z,15.80
2018-07-10T15:36:31.404Z,15.73
2018-07-10T15:38:59.108Z,15.68
2018-07-10T15:41:26.849Z,15.63
2018-07-10T15:43:55.459Z,15.57
2018-07-10T15:46:23.632Z,15.51
2018-07-10T15:48:52.181Z,15.48
2018-07-10T15:51:21.610Z,15.47
2018-07-10T15:53:50.196Z,15.46
2018-07-10T15:56:19.458Z,15.46
2018-07-10T15:58:50.463Z,15.48
2018-07-10T16:01:18.588Z,15.49
2018-07-10T16:03:46.259Z,15.50
2018-07-10T16:06:15.572Z,15.52
2018-07-10T16:08:44.432Z,15.58
2018-07-10T16:11:12.338Z,15.63
2018-07-10T16:13:42.332Z,15.64
2018-07-10T16:16:10.032Z,15.56
2018-07-10T16:18:38.397Z,15.43
2018-07-10T16:21:07.983Z,15.23
2018-07-10T16:23:35.636Z,15.23
2018-07-10T16:26:03.990Z,15.28
2018-07-10T16:28:33.090Z,15.35
2018-07-10T16:31:01.477Z,15.37
2018-07-10T16:33:30.320Z,15.40
2018-07-10T16:36:01.315Z,15.44
2018-07-10T16:38:29.773Z,15.46
2018-07-10T16:41:03.193Z,15.43
2018-07-10T16:43:32.469Z,15.45
2018-07-10T16:46:00.148Z,15.45
2018-07-10T16:48:28.656Z,15.46
2018-07-10T16:50:57.211Z,15.46
2018-07-10T16:53:24.872Z,15.46
2018-07-10T16:55:52.540Z,15.46
2018-07-10T16:58:20.524Z,15.49
2018-07-10T17:00:49.336Z,15.47
2018-07-10T17:03:16.997Z,15.45
2018-07-10T17:05:44.948Z,15.53
2018-07-10T17:08:13.575Z,15.61
2018-07-10T17:10:42.932Z,15.63
2018-07-10T17:13:10.924Z,15.65
2018-07-10T17:15:39.089Z,15.71
2018-07-10T17:18:07.268Z,15.82
2018-07-10T17:20:40.489Z,15.92
2018-07-10T17:23:08.333Z,15.96
2018-07-10T17:25:42.116Z,15.92
2018-07-10T17:28:10.061Z,15.87
2018-07-10T17:30:40.393Z,15.87
2018-07-10T17:33:11.261Z,15.89
2018-07-10T17:35:39.260Z,15.90
2018-07-10T17:38:08.400Z,15.89
2018-07-10T17:40:36.612Z,15.87
2018-07-10T17:43:06.380Z,15.83
2018-07-10T17:45:34.056Z,15.78
2018-07-10T17:48:01.753Z,15.76
2018-07-10T17:50:33.936Z,15.75
2018-07-10T17:53:02.416Z,15.74
2018-07-10T17:55:31.368Z,15.70
2018-07-10T17:58:02.540Z,15.66
2018-07-10T18:06:34.114Z,15.65
2018-07-10T18:09:02.996Z,15.86
2018-07-10T18:11:31.321Z,15.89
2018-07-10T18:14:02.989Z,15.95
2018-07-10T18:16:41.432Z,15.94
2018-07-10T18:19:12.575Z,15.92
2018-07-10T18:21:43.229Z,15.90
2018-07-10T18:24:12.230Z,15.94
2018-07-10T18:26:40.950Z,16.01
2018-07-10T18:29:10.531Z,16.05
2018-07-10T18:31:39.788Z,16.08
2018-07-10T18:34:09.250Z,16.12
2018-07-10T18:36:37.540Z,16.11
2018-07-10T18:39:10.716Z,16.09
2018-07-10T18:41:41.690Z,16.07
2018-07-10T18:44:12.631Z,16.03
2018-07-10T18:46:42.631Z,16.02
2018-07-10T18:49:12.576Z,16.01
2018-07-10T18:51:45.854Z,15.99
2018-07-10T18:54:14.603Z,15.99
2018-07-10T18:56:45.619Z,15.98
2018-07-10T18:59:13.444Z,15.96
2018-07-10T19:01:44.528Z,15.93
2018-07-10T19:04:12.490Z,15.87
2018-07-10T19:06:40.585Z,15.80
2018-07-10T19:09:08.929Z,15.70
2018-07-10T19:11:39.771Z,15.60
2018-07-10T19:14:07.406Z,15.51
2018-07-10T19:16:37.121Z,15.41
2018-07-10T19:19:06.447Z,15.29
2018-07-10T19:21:35.575Z,15.17
2018-07-10T19:24:05.324Z,15.06
2018-07-10T19:26:34.497Z,14.97
2018-07-10T19:29:03.364Z,14.91
2018-07-10T19:31:34.174Z,14.80
2018-07-10T19:34:02.300Z,14.69
2018-07-10T19:39:32.308Z,14.49
2018-07-10T19:42:00.579Z,14.39
2018-07-10T19:44:29.965Z,14.31
2018-07-10T19:46:57.949Z,14.25
2018-07-10T19:49:28.756Z,14.20
2018-07-10T19:51:58.077Z,14.17
2018-07-10T19:54:26.752Z,14.14
2018-07-10T19:56:56.404Z,14.09
2018-07-10T19:59:24.082Z,14.05
2018-07-10T20:02:01.949Z,13.99
2018-07-10T20:04:29.747Z,13.93
2018-07-10T20:06:58.447Z,13.93
2018-07-10T20:09:26.553Z,13.94
2018-07-10T20:11:55.507Z,13.93
2018-07-10T20:14:24.154Z,13.91
2018-07-10T20:19:29.591Z,13.88
2018-07-10T20:22:00.596Z,13.88
2018-07-10T20:24:28.811Z,13.88
2018-07-10T20:26:56.575Z,13.84
2018-07-10T20:29:26.202Z,13.79
2018-07-10T20:31:53.863Z,13.71
2018-07-10T20:34:22.208Z,13.66
2018-07-10T20:36:51.861Z,13.59
2018-07-10T20:39:19.559Z,13.54
2018-07-10T20:41:49.004Z,13.49
2018-07-10T20:44:21.681Z,13.44
2018-07-10T20:46:50.665Z,13.39
2018-07-10T20:49:24.667Z,13.35
2018-07-10T20:54:28.421Z,13.30
2018-07-10T20:56:57.774Z,13.26
2018-07-10T20:59:25.787Z,13.21
2018-07-10T21:01:54.459Z,13.15
2018-07-10T21:04:22.958Z,13.13
2018-07-10T21:06:51.644Z,13.13
2018-07-10T21:09:19.314Z,13.15
2018-07-10T21:14:27.395Z,13.21
2018-07-10T21:16:55.948Z,13.22
2018-07-10T21:19:24.822Z,13.21
2018-07-10T21:21:53.749Z,13.17
2018-07-10T21:24:22.286Z,13.18
2018-07-10T21:26:51.639Z,13.19
2018-07-10T21:29:19.623Z,13.21
2018-07-10T21:31:47.346Z,13.24
2018-07-10T21:34:15.394Z,13.28
2018-07-10T21:36:45.457Z,13.30
2018-07-10T21:39:15.293Z,13.37
2018-07-10T21:41:44.480Z,13.44
2018-07-10T21:44:13.407Z,13.50
2018-07-10T21:46:41.642Z,13.56
2018-07-10T21:49:09.289Z,13.60
2018-07-10T21:51:41.388Z,13.64
2018-07-10T21:54:11.408Z,13.66
2018-07-10T21:56:39.404Z,13.68
2018-07-10T21:59:08.431Z,13.70
2018-07-10T22:01:37.255Z,13.70
2018-07-10T22:04:05.752Z,13.71
2018-07-10T22:06:33.704Z,13.73
2018-07-10T22:09:02.216Z,13.72
2018-07-10T22:11:30.708Z,13.73
2018-07-10T22:14:00.252Z,13.72
2018-07-10T22:16:28.983Z,13.72
2018-07-10T22:18:56.651Z,13.71
2018-07-10T22:21:24.628Z,13.71
2018-07-10T22:23:52.287Z,13.73
2018-07-10T22:26:20.780Z,13.74
2018-07-10T22:28:52.340Z,13.72
2018-07-10T22:33:27.370Z,13.65
2018-07-10T22:36:01.229Z,13.53
2018-07-10T22:38:30.224Z,13.44
2018-07-10T22:40:57.905Z,13.39
2018-07-10T22:43:25.848Z,13.41
2018-07-10T22:45:54.194Z,13.46
2018-07-10T22:48:22.432Z,13.50
2018-07-10T22:50:50.644Z,13.53
2018-07-10T22:53:18.599Z,13.55
2018-07-10T22:55:47.838Z,13.57
2018-07-10T22:58:16.664Z,13.58
2018-07-10T23:00:44.627Z,13.59
2018-07-10T23:03:12.305Z,13.58
2018-07-10T23:05:39.991Z,13.59
2018-07-10T23:08:07.988Z,13.54
2018-07-10T23:10:35.673Z,13.51
2018-07-10T23:13:03.373Z,13.52
2018-07-10T23:15:32.308Z,13.52
2018-07-10T23:17:59.970Z,13.55
2018-07-10T23:20:27.667Z,13.58
2018-07-10T23:22:55.708Z,13.62
2018-07-10T23:25:25.767Z,13.67
2018-07-10T23:27:53.424Z,13.71
2018-07-10T23:30:21.368Z,13.74
2018-07-10T23:32:49.007Z,13.77
2018-07-10T23:35:16.672Z,13.79
2018-07-10T23:37:44.670Z,13.81
2018-07-10T23:40:12.362Z,13.82
2018-07-10T23:42:40.029Z,13.85
2018-07-10T23:45:07.720Z,13.87
2018-07-10T23:47:35.686Z,13.88
2018-07-10T23:50:04.887Z,13.91
2018-07-10T23:52:33.370Z,13.93
2018-07-10T23:55:01.568Z,13.98
2018-07-10T23:57:29.686Z,14.05
2018-07-10T23:59:57.554Z,14.08
